logo
Search for airport 
image banner adimage banner adimage banner ad
image banner ad

LOBI - Modling Kh

Located in District Modling, Austria

ICAO - , IATA -

Data provided by Airmate  

General information

Coordinates: N48°5'22" E16°17'54"
Elevation is 768 feet MSL.
 
View others Airports in Vienna

Operational data

Special qualification required
Current time UTC:
Current local time:
Weather at : LOAV - Voslau ( 14 km )
METAR: LOAV 130700Z 32006KT CAVOK 19/08
TAF: TAF LOAV 130715Z 1307/1315 30010KT CAVOK
View NOTAMs / SUP AIP / TFR affecting this airport [VIEW]
Communications frequencies: [VIEW]

Runways:

Airport contact information

Address: District Modling Austria

Satellite view of LOBI